createdAt,value
2023-10-10T00:01:12.439Z,75.87
2023-10-10T00:03:46.754Z,76.02
2023-10-10T00:06:35.376Z,75.99
2023-10-10T00:15:16.920Z,75.89
2023-10-10T00:18:06.067Z,76.24
2023-10-10T00:20:42.742Z,75.94
2023-10-10T00:23:31.719Z,75.94
2023-10-10T00:26:21.143Z,76.09
2023-10-10T00:29:10.368Z,76.09
2023-10-10T00:31:46.628Z,76.01
2023-10-10T00:34:36.047Z,76.25
2023-10-10T00:37:11.641Z,76.23
2023-10-10T00:40:01.839Z,76.23
2023-10-10T00:57:48.134Z,76.15
2023-10-10T01:00:37.005Z,76.29
2023-10-10T01:03:24.849Z,76.49
2023-10-10T01:06:17.537Z,76.59
2023-10-10T01:08:57.540Z,76.53
2023-10-10T01:11:44.916Z,76.57
2023-10-10T01:14:20.408Z,76.59
2023-10-10T01:16:55.924Z,76.51
2023-10-10T01:19:45.236Z,76.69
2023-10-10T01:22:25.914Z,76.48
2023-10-10T01:25:35.294Z,76.60
2023-10-10T01:28:27.750Z,76.65
2023-10-10T01:31:02.876Z,76.65
2023-10-10T01:33:51.165Z,76.83
2023-10-10T01:36:40.125Z,76.73
2023-10-10T01:39:23.329Z,76.63
2023-10-10T01:42:12.874Z,76.95
2023-10-10T01:44:46.249Z,76.87
2023-10-10T01:47:35.331Z,76.88
2023-10-10T01:50:12.720Z,76.74
2023-10-10T01:53:00.568Z,76.88
2023-10-10T01:55:48.893Z,76.73
2023-10-10T01:58:38.506Z,76.83
2023-10-10T02:01:17.519Z,76.88
2023-10-10T02:04:07.832Z,77.00
2023-10-10T02:06:57.060Z,77.10
2023-10-10T02:09:32.003Z,77.05
2023-10-10T02:12:12.303Z,76.95
2023-10-10T02:14:59.827Z,77.20
2023-10-10T02:17:37.976Z,77.34
2023-10-10T02:20:37.712Z,77.52
2023-10-10T02:23:13.223Z,77.54
2023-10-10T02:26:07.252Z,77.72
2023-10-10T02:28:49.112Z,77.72
2023-10-10T02:53:22.054Z,78.24
2023-10-10T02:55:56.882Z,78.03
2023-10-10T02:58:44.907Z,78.04
2023-10-10T03:01:31.385Z,78.15
2023-10-10T03:04:19.297Z,78.23
2023-10-10T03:06:52.656Z,78.22
2023-10-10T03:09:42.022Z,78.26
2023-10-10T03:12:17.348Z,78.30
2023-10-10T03:15:07.077Z,78.36
2023-10-10T03:18:08.142Z,78.39
2023-10-10T03:20:51.547Z,78.43
2023-10-10T03:23:45.120Z,78.33
2023-10-10T03:26:22.582Z,78.30
2023-10-10T03:29:11.781Z,78.39
2023-10-10T03:31:47.198Z,78.17
2023-10-10T03:34:36.362Z,78.26
2023-10-10T03:37:32.667Z,78.27
2023-10-10T03:40:12.292Z,78.17
2023-10-10T03:43:17.548Z,78.17
2023-10-10T03:46:08.240Z,78.13
2023-10-10T03:53:38.378Z,78.52
2023-10-10T03:56:34.384Z,78.48
2023-10-10T03:59:39.778Z,78.77
2023-10-10T04:02:30.528Z,78.90
2023-10-10T04:05:36.106Z,78.87
2023-10-10T04:08:27.086Z,80.41
2023-10-10T04:11:32.891Z,79.63
2023-10-10T04:14:34.120Z,80.67
2023-10-10T04:17:39.238Z,79.64
2023-10-10T04:20:44.688Z,80.40
2023-10-10T04:23:35.288Z,80.64
2023-10-10T04:26:57.107Z,79.33
2023-10-10T04:30:02.491Z,79.74
2023-10-10T04:32:53.487Z,78.95
2023-10-10T04:35:58.725Z,78.62
2023-10-10T04:38:49.672Z,79.51
2023-10-10T04:41:54.818Z,78.75
2023-10-10T04:44:48.588Z,79.64
2023-10-10T04:47:53.959Z,78.88
2023-10-10T04:51:15.533Z,78.28
2023-10-10T04:54:20.642Z,79.22
2023-10-10T04:57:11.950Z,78.66
2023-10-10T05:00:17.257Z,78.37
2023-10-10T05:03:22.805Z,79.43
2023-10-10T05:06:16.540Z,79.86
2023-10-10T05:09:21.645Z,78.76
2023-10-10T05:12:15.024Z,78.18
2023-10-10T05:15:20.074Z,77.89
2023-10-10T05:18:10.717Z,77.86
2023-10-10T05:21:15.895Z,77.99
2023-10-10T05:23:49.887Z,78.08
2023-10-10T05:26:40.038Z,78.28
2023-10-10T05:29:13.213Z,78.36
2023-10-10T05:32:01.208Z,78.44
2023-10-10T05:34:35.384Z,78.39
2023-10-10T05:37:22.748Z,78.34
2023-10-10T05:39:59.380Z,78.15
2023-10-10T05:42:46.736Z,78.25
2023-10-10T05:45:19.971Z,78.36
2023-10-10T05:48:08.212Z,78.49
2023-10-10T05:50:42.324Z,78.33
2023-10-10T05:53:31.653Z,78.59
2023-10-10T05:56:20.374Z,78.59
2023-10-10T05:58:55.186Z,78.48
2023-10-10T06:01:42.824Z,78.30
2023-10-10T06:04:16.924Z,78.23
2023-10-10T06:07:04.840Z,78.21
2023-10-10T06:09:39.843Z,77.70
2023-10-10T06:12:28.633Z,77.60
2023-10-10T06:15:03.824Z,77.60
2023-10-10T06:17:52.833Z,77.34
2023-10-10T06:20:58.065Z,77.31
2023-10-10T06:23:20.139Z,77.34
2023-10-10T06:26:08.636Z,77.51
2023-10-10T06:28:58.478Z,77.61
2023-10-10T06:31:46.851Z,77.04
2023-10-10T06:34:24.184Z,76.92
2023-10-10T06:37:12.097Z,77.06
2023-10-10T06:39:56.118Z,76.45
2023-10-10T06:42:46.696Z,76.50
2023-10-10T06:45:21.563Z,76.31
2023-10-10T06:48:10.811Z,76.43
2023-10-10T06:50:58.373Z,76.47
2023-10-10T06:53:36.927Z,76.39
2023-10-10T06:56:27.556Z,76.32
2023-10-10T06:59:18.019Z,76.49
2023-10-10T07:01:51.524Z,76.49
2023-10-10T07:04:39.586Z,76.63
2023-10-10T07:07:27.810Z,76.64
2023-10-10T07:10:00.996Z,76.47
2023-10-10T07:12:48.830Z,76.29
2023-10-10T07:15:22.999Z,76.32
2023-10-10T07:18:13.160Z,76.38
2023-10-10T07:21:08.475Z,76.13
2023-10-10T07:24:06.686Z,76.04
2023-10-10T07:27:02.345Z,76.15
2023-10-10T07:30:03.454Z,75.90
2023-10-10T07:32:53.120Z,75.74
2023-10-10T07:35:48.250Z,75.61
2023-10-10T07:38:30.300Z,75.59
2023-10-10T07:41:43.719Z,75.19
2023-10-10T07:44:32.442Z,75.06
2023-10-10T07:47:33.636Z,75.50
2023-10-10T07:50:22.846Z,74.99
2023-10-10T07:53:14.825Z,74.68
2023-10-10T07:55:56.256Z,74.58
2023-10-10T07:58:53.207Z,74.80
2023-10-10T08:01:40.424Z,76.18
2023-10-10T08:04:24.224Z,74.89
2023-10-10T08:07:16.609Z,74.20
2023-10-10T08:09:53.646Z,73.95
2023-10-10T08:13:01.146Z,73.61
2023-10-10T08:15:34.614Z,73.15
2023-10-10T08:18:33.744Z,73.28
2023-10-10T08:21:23.691Z,73.10
2023-10-10T08:23:59.410Z,72.42
2023-10-10T08:26:46.901Z,72.47
2023-10-10T08:29:22.095Z,72.23
2023-10-10T08:32:10.344Z,72.48
2023-10-10T08:34:44.151Z,71.94
2023-10-10T08:37:33.194Z,72.32
2023-10-10T08:40:10.314Z,71.37
2023-10-10T08:42:57.729Z,71.30
2023-10-10T08:45:35.319Z,72.06
2023-10-10T08:48:24.880Z,72.08
2023-10-10T08:51:01.477Z,71.36
2023-10-10T08:53:52.187Z,70.90
2023-10-10T08:56:27.251Z,70.33
2023-10-10T08:59:17.414Z,68.78
2023-10-10T09:01:51.627Z,66.75
2023-10-10T09:04:38.873Z,66.75
2023-10-10T09:07:15.153Z,67.83
2023-10-10T09:10:06.923Z,68.92
2023-10-10T09:12:40.630Z,69.01
2023-10-10T09:15:20.902Z,69.59
2023-10-10T09:18:22.726Z,69.25
2023-10-10T09:20:58.494Z,68.51
2023-10-10T09:23:47.840Z,64.42
2023-10-10T09:26:31.196Z,62.20
2023-10-10T09:29:34.069Z,62.54
2023-10-10T09:32:07.541Z,62.02
2023-10-10T09:34:56.041Z,62.50
2023-10-10T09:37:34.686Z,62.87
2023-10-10T09:40:13.640Z,63.48
2023-10-10T09:43:07.821Z,64.55
2023-10-10T09:46:10.925Z,65.16
2023-10-10T09:49:20.541Z,65.14
2023-10-10T09:52:34.075Z,66.83
2023-10-10T09:55:40.817Z,66.28
2023-10-10T09:58:21.041Z,65.49
2023-10-10T10:01:17.544Z,65.38
2023-10-10T10:04:05.827Z,65.57
2023-10-10T10:10:17.834Z,65.96
2023-10-10T10:13:20.196Z,64.54
2023-10-10T10:16:41.434Z,62.66
2023-10-10T10:19:29.974Z,63.14
2023-10-10T10:22:10.316Z,59.37
2023-10-10T10:25:23.666Z,56.73
2023-10-10T10:28:22.460Z,55.77
2023-10-10T10:31:32.125Z,56.44
2023-10-10T10:34:28.463Z,57.86
2023-10-10T10:37:24.841Z,58.29
2023-10-10T10:40:17.777Z,58.98
2023-10-10T10:43:05.398Z,60.38
2023-10-10T10:45:43.986Z,60.97
2023-10-10T10:48:35.563Z,61.04
2023-10-10T10:51:26.755Z,60.71
2023-10-10T10:56:00.807Z,59.91
2023-10-10T10:58:33.947Z,60.62
2023-10-10T11:01:23.033Z,61.56
2023-10-10T11:03:57.448Z,60.05
2023-10-10T11:07:01.981Z,54.28
2023-10-10T11:09:37.228Z,51.86
2023-10-10T11:12:33.550Z,50.34
2023-10-10T11:15:23.381Z,52.40
2023-10-10T11:17:58.663Z,50.94
2023-10-10T11:20:58.848Z,51.52
2023-10-10T11:24:14.716Z,53.21
2023-10-10T11:26:48.515Z,53.22
2023-10-10T11:29:41.719Z,52.04
2023-10-10T11:32:17.576Z,52.01
2023-10-10T11:35:15.271Z,53.59
2023-10-10T11:37:52.136Z,54.69
2023-10-10T11:40:40.685Z,55.69
2023-10-10T11:43:29.637Z,55.82
2023-10-10T11:46:03.517Z,56.11
2023-10-10T11:48:53.050Z,56.22
2023-10-10T11:51:37.765Z,54.94
2023-10-10T11:54:28.770Z,52.59
2023-10-10T11:57:16.657Z,51.15
2023-10-10T11:59:50.681Z,52.09
2023-10-10T12:02:45.578Z,55.99
2023-10-10T12:05:46.919Z,57.69
2023-10-10T12:08:38.127Z,59.38
2023-10-10T12:11:15.998Z,61.98
2023-10-10T12:14:04.310Z,60.57
2023-10-10T12:16:37.780Z,59.98
2023-10-10T12:19:25.245Z,60.53
2023-10-10T12:22:01.789Z,60.90
2023-10-10T12:24:49.257Z,61.39
2023-10-10T12:27:27.077Z,61.71
2023-10-10T12:30:17.532Z,62.10
2023-10-10T12:32:50.855Z,62.21
2023-10-10T12:35:39.026Z,61.09
2023-10-10T12:38:12.892Z,55.57
2023-10-10T12:41:00.270Z,54.54
2023-10-10T12:43:34.148Z,53.74
2023-10-10T12:46:22.964Z,52.17
2023-10-10T12:48:56.415Z,51.36
2023-10-10T12:51:46.341Z,51.43
2023-10-10T12:54:36.885Z,52.41
2023-10-10T12:57:11.655Z,53.12
2023-10-10T13:00:00.787Z,55.18
2023-10-10T13:02:34.958Z,56.35
2023-10-10T13:05:24.642Z,57.34
2023-10-10T13:08:00.611Z,57.09
2023-10-10T13:10:50.293Z,56.67
2023-10-10T13:13:30.283Z,53.67
2023-10-10T13:16:26.073Z,53.83
2023-10-10T13:19:00.352Z,55.04
2023-10-10T13:21:48.637Z,55.76
2023-10-10T13:24:22.104Z,56.22
2023-10-10T13:27:30.197Z,57.03
2023-10-10T13:30:03.660Z,57.62
2023-10-10T13:32:52.530Z,57.95
2023-10-10T13:35:25.814Z,58.23
2023-10-10T13:38:14.963Z,58.79
2023-10-10T13:40:50.587Z,58.27
2023-10-10T13:43:40.190Z,58.32
2023-10-10T13:46:14.459Z,58.58
2023-10-10T13:49:03.863Z,59.38
2023-10-10T13:51:55.377Z,59.68
2023-10-10T13:57:24.890Z,60.30
2023-10-10T13:59:58.249Z,60.46
2023-10-10T14:02:46.769Z,60.49
2023-10-10T14:05:21.396Z,60.55
2023-10-10T14:08:12.710Z,61.11
2023-10-10T14:11:02.537Z,61.26
2023-10-10T14:13:36.029Z,61.52
2023-10-10T14:16:25.922Z,61.83
2023-10-10T14:19:00.759Z,62.19
2023-10-10T14:21:36.696Z,62.64
2023-10-10T14:24:24.151Z,63.05
2023-10-10T14:26:58.935Z,63.31
2023-10-10T14:29:46.447Z,63.54
2023-10-10T14:32:35.092Z,63.62
2023-10-10T14:35:12.245Z,63.93
2023-10-10T14:37:58.288Z,64.33
2023-10-10T14:40:38.212Z,64.83
2023-10-10T14:43:13.237Z,65.15
2023-10-10T14:46:03.157Z,65.49
2023-10-10T14:48:36.503Z,65.95
2023-10-10T14:51:23.991Z,66.17
2023-10-10T14:54:13.942Z,66.35
2023-10-10T14:56:48.204Z,66.59
2023-10-10T14:59:37.981Z,66.43
2023-10-10T15:02:13.663Z,66.59
2023-10-10T15:05:02.870Z,66.73
2023-10-10T15:07:50.275Z,66.98
2023-10-10T15:10:27.979Z,67.24
2023-10-10T15:13:17.485Z,67.39
2023-10-10T15:15:54.034Z,67.66
2023-10-10T15:18:43.466Z,67.79
2023-10-10T15:21:34.193Z,67.89
2023-10-10T15:24:11.482Z,68.11
2023-10-10T15:27:01.348Z,68.04
2023-10-10T15:29:34.891Z,68.19
2023-10-10T15:32:22.380Z,68.18
2023-10-10T15:34:55.600Z,68.38
2023-10-10T15:37:44.148Z,68.40
2023-10-10T15:40:22.769Z,68.50
2023-10-10T15:42:58.116Z,68.49
2023-10-10T15:45:49.258Z,68.43
2023-10-10T15:48:26.761Z,68.49
2023-10-10T15:51:16.038Z,68.48
2023-10-10T15:54:05.386Z,68.39
2023-10-10T15:56:39.354Z,68.32
2023-10-10T15:59:26.776Z,68.20
2023-10-10T16:02:15.836Z,68.07
2023-10-10T16:05:04.375Z,67.96
2023-10-10T16:07:37.593Z,67.89
2023-10-10T16:10:25.502Z,67.82
2023-10-10T16:13:13.448Z,67.73
2023-10-10T16:15:46.594Z,67.75
2023-10-10T16:18:34.650Z,67.88
2023-10-10T16:21:09.930Z,67.98
2023-10-10T16:23:57.428Z,68.19
2023-10-10T16:26:30.717Z,68.58
2023-10-10T16:29:21.020Z,68.82
2023-10-10T16:31:54.950Z,69.09
2023-10-10T16:34:44.796Z,69.11
2023-10-10T16:37:19.680Z,69.34
2023-10-10T16:40:11.406Z,69.55
2023-10-10T16:42:58.855Z,69.78
2023-10-10T16:45:48.318Z,69.83
2023-10-10T16:48:21.704Z,69.87
2023-10-10T16:51:10.564Z,69.93
2023-10-10T16:53:58.240Z,70.00
2023-10-10T16:56:32.674Z,70.25
2023-10-10T16:59:20.150Z,70.38
2023-10-10T17:01:53.423Z,70.57
2023-10-10T17:04:41.498Z,70.73
2023-10-10T17:07:15.043Z,70.84
2023-10-10T17:10:05.210Z,70.79
2023-10-10T17:12:53.254Z,71.04
2023-10-10T17:15:40.840Z,71.19
2023-10-10T17:18:15.305Z,71.35
2023-10-10T17:21:03.525Z,71.42
2023-10-10T17:23:52.061Z,71.45
2023-10-10T17:26:25.949Z,71.39
2023-10-10T17:29:14.154Z,71.48
2023-10-10T17:32:02.106Z,71.54
2023-10-10T17:34:35.423Z,71.71
2023-10-10T17:37:24.181Z,71.72
2023-10-10T17:39:58.264Z,71.99
2023-10-10T17:42:48.807Z,72.08
2023-10-10T17:45:22.795Z,72.25
2023-10-10T17:48:11.019Z,72.25
2023-10-10T17:50:46.752Z,72.45
2023-10-10T17:53:34.286Z,72.51
2023-10-10T17:56:25.161Z,72.58
2023-10-10T17:58:58.672Z,72.63
2023-10-10T18:01:46.241Z,72.62
2023-10-10T18:04:35.483Z,72.72
2023-10-10T18:07:10.971Z,72.93
2023-10-10T18:09:58.342Z,72.88
2023-10-10T18:12:32.001Z,72.83
2023-10-10T18:15:20.668Z,72.69
2023-10-10T18:18:11.021Z,72.62
2023-10-10T18:20:48.984Z,72.66
2023-10-10T18:23:23.736Z,72.68
2023-10-10T18:26:20.755Z,72.56
2023-10-10T18:28:58.450Z,72.56
2023-10-10T18:31:45.897Z,72.51
2023-10-10T18:34:33.964Z,72.50
2023-10-10T18:37:23.516Z,72.54
2023-10-10T18:39:58.139Z,72.80
2023-10-10T18:42:48.732Z,73.08
2023-10-10T18:45:22.204Z,73.26
2023-10-10T18:48:12.223Z,73.17
2023-10-10T18:50:45.516Z,73.07
2023-10-10T18:53:18.772Z,73.10
2023-10-10T18:56:07.274Z,73.21
2023-10-10T18:58:54.830Z,73.31
2023-10-10T19:01:29.696Z,73.33
2023-10-10T19:04:19.048Z,73.22
2023-10-10T19:06:54.297Z,73.39
2023-10-10T19:09:44.036Z,73.44
2023-10-10T19:12:31.879Z,73.45
2023-10-10T19:15:06.087Z,73.63
2023-10-10T19:17:57.285Z,73.87
2023-10-10T19:20:36.001Z,73.98
2023-10-10T19:23:24.337Z,73.94
2023-10-10T19:25:59.141Z,74.12
2023-10-10T19:28:50.348Z,74.27
2023-10-10T19:31:41.616Z,74.46
2023-10-10T19:34:29.370Z,74.64
2023-10-10T19:37:03.918Z,74.80
2023-10-10T19:39:51.377Z,74.97
2023-10-10T19:42:26.494Z,75.13
2023-10-10T19:45:25.177Z,75.41
2023-10-10T19:48:00.882Z,75.60
2023-10-10T19:50:50.885Z,75.55
2023-10-10T19:53:25.851Z,75.70
2023-10-10T19:56:01.244Z,75.80
2023-10-10T19:58:49.502Z,75.87
2023-10-10T20:01:22.962Z,76.06
2023-10-10T20:03:57.487Z,76.11
2023-10-10T20:06:31.607Z,76.18
2023-10-10T20:09:20.652Z,76.29
2023-10-10T20:12:10.992Z,76.42
2023-10-10T20:14:44.584Z,76.47
2023-10-10T20:17:33.923Z,76.40
2023-10-10T20:20:21.506Z,76.38
2023-10-10T20:22:57.481Z,76.43
2023-10-10T20:25:45.021Z,76.49
2023-10-10T20:28:18.205Z,76.60
2023-10-10T20:31:09.803Z,76.64
2023-10-10T20:33:43.382Z,76.72
2023-10-10T20:36:30.855Z,76.69
2023-10-10T20:39:07.561Z,76.66
2023-10-10T20:41:55.599Z,76.67
2023-10-10T20:44:28.813Z,76.67
2023-10-10T20:47:16.265Z,76.80
2023-10-10T20:49:49.609Z,76.81
2023-10-10T20:52:40.481Z,76.78
2023-10-10T20:55:16.704Z,76.71
2023-10-10T20:58:09.072Z,76.68
2023-10-10T21:00:59.064Z,76.64
2023-10-10T21:03:34.945Z,76.65
2023-10-10T21:06:23.655Z,76.66
2023-10-10T21:09:00.971Z,76.63
2023-10-10T21:14:46.192Z,76.47
2023-10-10T21:17:28.933Z,76.41
2023-10-10T21:20:23.969Z,76.42
2023-10-10T21:23:12.755Z,76.37
2023-10-10T21:25:46.366Z,76.33
2023-10-10T21:28:34.129Z,76.38
2023-10-10T21:31:21.852Z,76.35
2023-10-10T21:34:12.852Z,76.36
2023-10-10T21:36:47.782Z,76.36
2023-10-10T21:39:36.490Z,76.43
2023-10-10T21:42:25.970Z,76.46
2023-10-10T21:44:59.395Z,76.54
2023-10-10T21:47:48.597Z,76.59
2023-10-10T21:50:40.333Z,76.62
2023-10-10T21:53:31.052Z,76.62
2023-10-10T21:56:20.308Z,76.74
2023-10-10T21:59:10.020Z,76.95
2023-10-10T22:01:57.442Z,77.03
2023-10-10T22:04:31.590Z,76.99
2023-10-10T22:07:29.770Z,77.01
2023-10-10T22:10:15.138Z,76.92
2023-10-10T22:13:03.440Z,76.85
2023-10-10T22:15:50.782Z,76.79
2023-10-10T22:18:38.380Z,76.79
2023-10-10T22:21:27.837Z,76.74
2023-10-10T22:24:15.905Z,76.78
2023-10-10T22:27:05.204Z,76.74
2023-10-10T22:29:52.648Z,76.71
2023-10-10T22:32:28.280Z,76.63
2023-10-10T22:35:19.696Z,76.72
2023-10-10T22:37:56.729Z,76.68
2023-10-10T22:40:46.522Z,76.60
2023-10-10T22:43:37.440Z,76.59
2023-10-10T22:46:10.971Z,76.51
2023-10-10T22:48:59.117Z,76.58
2023-10-10T22:51:47.460Z,76.60
2023-10-10T22:54:21.145Z,76.59
2023-10-10T22:57:09.479Z,76.59
2023-10-10T22:59:56.886Z,76.46
2023-10-10T23:02:31.704Z,76.36
2023-10-10T23:05:21.379Z,76.30
2023-10-10T23:07:57.139Z,76.19
2023-10-10T23:10:31.544Z,76.15
2023-10-10T23:13:19.063Z,76.16
2023-10-10T23:16:06.748Z,76.08
2023-10-10T23:18:40.003Z,76.02
2023-10-10T23:21:28.712Z,76.11
2023-10-10T23:24:02.321Z,76.04
2023-10-10T23:26:51.829Z,76.09
2023-10-10T23:30:00.638Z,76.12
2023-10-10T23:32:34.369Z,76.10
2023-10-10T23:35:23.385Z,76.16
2023-10-10T23:38:00.747Z,76.09
2023-10-10T23:40:50.301Z,76.11
2023-10-10T23:43:38.815Z,76.05
2023-10-10T23:46:26.551Z,75.98
2023-10-10T23:48:59.778Z,75.89
2023-10-10T23:51:47.226Z,75.88
2023-10-10T23:54:36.437Z,75.85
2023-10-10T23:57:24.068Z,75.78
2023-10-10T23:59:57.305Z,75.67
